Nationale NO Noisy-sur-Ecole (77) - Abis2

Date : 20/03/2011
Distance : 11,000 km

Place Nom Licence Catégorie Club Temps min/km CN à J-60 Points Différence Nouveau CN
1 COCHEY Benoit 3210 H21 3810RA 1:24:11 7'39 5929 6328 +399 6181
2 WOUTERS Denis 21159 H21 7808IF 1:26:57 7'54 5359 6126 +767 5342
3 FERRAND Raphael 8627 H21 6911RA 1:28:06 8'00 5278 6046 +768 5729
4 MEYER Kirian 1911 H21 6804AL 1:29:13 8'06 6555 5971 -584 6555
5 MOREY Etienne 3141 H21 7720IF 1:30:13 8'12 5430 5905 +475 5645
6 CHASTEL Vincent 22855 H21 7716IF 1:32:22 8'23 5517 5767 +250 5742
7 MAILLARD Ludovic 10782 H21 8405PR 1:33:31 8'30 5599 5696 +97 5633
8 BARLET Cedric 7566 H21 5402LO 1:36:15 8'45 5805 5534 -271 5847
9 LEQUINT Rémi 17574 H21 5907NO 1:37:33 8'52 5812 5461 -351 5869
10 KERVAREC Johann 10442 H21 6803AL 1:39:02 9'00 5379 5164
11 GOLEC Charly 15831 H21 6205NO 1:40:33 9'08 4722 5298 +576 4977
12 THURIOT Kévin 6014 H21 9502IF 1:43:22 9'23 5068 5153 +85 5114
13 FLICOTEAUX Emmanuel 6018 H21 2517FC 1:44:00 9'27 5002 5122 +120 5032
14 DEPRET Thomas 16233 H21 5907NO 1:44:16 9'28 5554 5109 -445 5554
15 TARDY Olivier 219 H21 4403PL 1:46:01 9'38 4738 5025 +287 4927
16 BLUM Simon 12977 H21 5116CA 1:46:20 9'40 5971 5010 -961 5971
17 CHOMETTE Vincent 16365 H21 4201RA 1:46:47 9'42 5128 4989 -139 5167
18 CADART Yoann 20377 H21 9202IF 1:49:13 9'55 4977 4877 -100 4991
19 VUILLEMARD Jérémy 21183 H21 8812LO 1:50:01 10'00 4739 4842 +103 4869
20 GUIOT Alexis 22548 H21 4504CE 1:50:23 10'02 4564 4826 +262 4775
21 MARLEIX Francois 15305 H21 8607PC 1:51:12 10'06 3614 4790 +1176 3882
22 MEHEUT Guillaume 20779 H21 7512IF 1:51:15 10'06 4076 4788 +712 4441
23 MATTHIEU Etienne 22388 H21 7108BO 1:51:58 10'10 4574 4758 +184 4656
24 MAGNIN Yohan 21158 H21 3913FC 1:52:09 10'11 5229 4750 -479 5229
25 BARBE David 8795 H21 4705AQ 1:53:24 10'18 4429 4697 +268 4730
26 DENIER Simon 10869 H21 5906NO 1:53:55 10'21 5863 4676 -1187 5863
27 BOUDET Adrien 7857 H21 1705PC 1:54:07 10'22 5586 4668 -918 5779
28 BAGUEREY Baptiste 302 H21 6804AL 1:55:15 10'28 4723 4622 -101 4723
29 LE ROUX Eric 23652 H21 9202IF 1:55:19 10'29 4303 4619 +316 4955
30 SCIORA Pierre 20095 H21 8405PR 1:56:14 10'34 4823 4583 -240 4823
31 ESNAULT Cedric 2787 H21 9404IF 1:56:50 10'37 4874 4559 -315 4840
32 CLEMENT-AGONI Benjamin 11391 H21 2108BO 1:56:54 10'37 5541 4557 -984 5541
33 PRINS Gregory 13757 H21 6208NO 1:57:05 10'38 5071 4550 -521 5071
34 FONTAINE Thibault 6998 H21 5907NO 1:59:23 10'51 3998 4462 +464 4242
35 SCHERZER Francois 2308 H21 3705CE 2:00:23 10'56 0 4425 4160
36 BERNAC Jordan 16954 H21 5907NO 2:01:29 11'02 3968 4385 +417 4181
37 BAROUX Samuel 2035 H21 7701IF 2:02:50 11'10 4981 4337 -644 4710
38 COSTE Robert 7838 H21 3308AQ 2:03:00 11'10 4415 4331 -84 4436
39 ROBERT Julien 22744 H21 7512IF 2:03:47 11'15 3426 4303 +877 4105
40 BERNARD Leo 22287 H21 9502IF 2:04:38 11'19 4367 4274 -93 4493
41 ROLLAND Xavier 19189 H21 6911RA 2:04:43 11'20 4271 3541
42 ROBERT Matthieu 19741 H21 2508FC 2:04:49 11'20 3825 4268 +443 4054
43 HAYER Nicolas 19393 H21 7720IF 2:05:30 11'24 4605 4245 -360 4616
44 MAINE Axel 10746 H21 7707IF 2:05:31 11'24 4244 3989
45 FENEUIL Joseph 9341 H21 3502BR 2:10:11 11'50 6305 4092 -2213 6305
46 GERARD Romuald 23544 H21 6008PI 2:10:45 11'53 3779 4074 +295 4285
47 AUGUSTYNOWICZ Brice 22780 H21 9105IF 2:13:34 12'08 3734 3988 +254 3849
48 PECHSTEIN Ulrich 9618 H21 5402LO 2:13:49 12'09 4932 3981 -951 4932
49 LEPREUX Sébastien 23680 H21 7807IF 2:13:52 12'10 3141 3979 +838 3936
50 LORENZATTI Eric 23784 H21 4709AQ 2:16:40 12'25 3071 3898 +827 3749
51 VALLAT Pierrick 853 H21 4203RA 2:19:07 12'38 3336 3829 +493 3652
52 YVE Thomas 6335 H21 9105IF 2:23:20 13'01 3723 3716 -7 3856
53 FUCHS Baptiste 24484 H21 7720IF 2:25:22 13'12 3664 3273
54 MARGUIER Aurelien 8498 H21 2517FC 2:25:24 13'13 4516 3664 -852 4516
55 VILLIERE Frédéric 2505 H21 8807LO 2:26:54 13'21 0 3626 3481
56 GUESDON Maxime 8990 H21 7807IF 2:29:21 13'34 4385 3567 -818 4385
57 SAUVESTRE Didier 22734 H21 7512IF 2:32:42 13'52 2979 3488 +509 3149
58 DECOSSE Benoit 13948 H21 2704NM 2:33:40 13'58 3811 3467 -344 3811
59 ORJEBIN Vianney 23808 H21 7512IF 2:36:40 14'14 2462 3400 +938 3262
60 FARGANEL Benoit 6552 H21 9105IF 2:36:40 14'14 3040 3400 +360 3032
61 DANTIN Christophe 21218 H21 7720IF 2:36:48 14'15 3438 3397 -41 3443
62 ROUSSEAUX Nicolas 23185 H21 7512IF 2:39:08 14'28 2945 3347 +402 3286
63 WILD Sebastian 13235 H21 2704NM 2:39:52 14'32 3625 3332 -293 3848
64 JIMBLET Nicolas 20801 H21 8607PC 2:54:06 15'49 2958 3060 +102 3105
POIRSON Gaëtan 21168 H21 7004FC abandon None 4983 0 4983
CHALOPIN Mathieu 3675 H21 8405PR pm None 4882 0 4882
FLAMANT Thomas 22487 H21 4504CE pm None 0 0 0
MICHAUD Thomas 11693 H21 3913FC pm None 3024 0 2965
POUZET Stephane 14549 H21 8903BO pm None 0 0 3899
LE DREAU Corentin 9401 H21 4203RA pm None 4688 0 4465
DELINSELLE Alexis 20676 H21 5907NO pm None 3493 0 3884
ARCHAMBEAULT Ludovic 18371 H21 8607PC pm None 3409 0 3178
HALLAY Franck 1983 H21 7709IF hors délai None 5703 0 5703
HALLAY Dominique 1982 H21 7709IF hors délai None 4378 0 4378